Time,TemperatureF,DewpointF,PressureIn,WindDirection,WindDirectionDegrees,WindSpeedMPH,WindSpeedGustMPH,Humidity,HourlyPrecipIn,Conditions,Clouds,dailyrainin,SoftwareType,DateUTC
2013-02-07 00:01:00,38.0,28.0,-100.00,NE,45,9.0,10.0,66,-99.99,,,-99.99,,2013-02-07 08:01:00,
2013-02-07 01:01:00,37.0,28.0,-100.00,NNE,15,2.0,3.0,69,-99.99,,,-99.99,,2013-02-07 09:01:00,
2013-02-07 02:01:00,37.0,28.0,-100.00,NE,40,3.0,6.0,69,-99.99,,,-99.99,,2013-02-07 10:01:00,
2013-02-07 03:01:00,37.0,28.0,-100.00,NE,35,5.0,7.0,69,-99.99,,,-99.99,,2013-02-07 11:01:00,
2013-02-07 04:02:00,36.0,28.0,-100.00,NNW,340,2.0,2.0,72,-99.99,,,-99.99,,2013-02-07 12:02:00,
2013-02-07 05:02:00,34.0,27.0,-100.00,NNE,25,3.0,5.0,75,-99.99,,,-99.99,,2013-02-07 13:02:00,
2013-02-07 06:01:00,33.0,27.0,-100.00,WNW,285,2.0,3.0,78,-99.99,,,-99.99,,2013-02-07 14:01:00,
2013-02-07 07:01:00,35.0,29.0,-100.00,WNW,300,1.0,3.0,78,-99.99,,,-99.99,,2013-02-07 15:01:00,
2013-02-07 08:20:00,37.0,29.0,-100.00,ESE,115,2.0,3.0,72,-99.99,,,-99.99,,2013-02-07 16:20:00,
2013-02-07 09:01:00,37.0,29.0,-100.00,ESE,115,2.0,3.0,72,-99.99,,,-99.99,,2013-02-07 17:01:00,
2013-02-07 09:11:00,37.0,29.0,-100.00,ESE,115,2.0,3.0,72,-99.99,,,-99.99,,2013-02-07 17:11:00,
2013-02-07 12:20:00,44.0,24.0,-100.00,SSW,205,6.0,9.0,44,-99.99,,,-99.99,,2013-02-07 20:20:00,
2013-02-07 13:01:00,44.0,24.0,-100.00,SSW,205,6.0,9.0,44,-99.99,,,-99.99,,2013-02-07 21:01:00,
2013-02-07 13:11:00,44.0,24.0,-100.00,SSW,205,6.0,9.0,44,-99.99,,,-99.99,,2013-02-07 21:11:00,
2013-02-07 14:20:00,46.0,24.0,-100.00,North,10,2.0,7.0,41,-99.99,,,-99.99,,2013-02-07 22:20:00,
2013-02-07 15:01:00,46.0,24.0,-100.00,North,10,2.0,7.0,41,-99.99,,,-99.99,,2013-02-07 23:01:00,
2013-02-07 15:11:00,46.0,24.0,-100.00,North,10,2.0,7.0,41,-99.99,,,-99.99,,2013-02-07 23:11:00,
2013-02-07 15:20:00,46.0,22.0,-100.00,South,170,1.0,5.0,38,-99.99,,,-99.99,,2013-02-07 23:20:00,
2013-02-07 16:01:00,46.0,22.0,-100.00,South,170,1.0,5.0,38,-99.99,,,-99.99,,2013-02-08 00:01:00,
2013-02-07 16:11:00,46.0,22.0,-100.00,South,170,1.0,5.0,38,-99.99,,,-99.99,,2013-02-08 00:11:00,
2013-02-07 17:20:00,40.0,20.0,-100.00,North,350,10.0,12.0,44,-99.99,,,-99.99,,2013-02-08 01:20:00,
2013-02-07 18:01:00,40.0,20.0,-100.00,North,350,10.0,12.0,44,-99.99,,,-99.99,,2013-02-08 02:01:00,
2013-02-07 18:11:00,40.0,20.0,-100.00,North,350,10.0,12.0,44,-99.99,,,-99.99,,2013-02-08 02:11:00,
2013-02-07 19:01:00,38.0,20.0,-100.00,NNW,345,12.0,15.0,47,-99.99,,,-99.99,,2013-02-08 03:01:00,
2013-02-07 20:01:00,37.0,20.0,-100.00,West,265,2.0,6.0,49,-99.99,,,-99.99,,2013-02-08 04:01:00,
2013-02-07 21:02:00,32.0,20.0,-100.00,WSW,245,1.0,3.0,60,-99.99,,,-99.99,,2013-02-08 05:02:00,
2013-02-07 22:01:00,33.0,20.0,-100.00,North,360,5.0,6.0,58,-99.99,,,-99.99,,2013-02-08 06:01:00,
2013-02-07 23:01:00,31.0,20.0,-100.00,NE,40,5.0,6.0,63,-99.99,,,-99.99,,2013-02-08 07:01:00,